createdAt,value
2022-09-06T00:00:18.625Z,20.76
2022-09-06T00:04:26.280Z,20.60
2022-09-06T00:08:29.545Z,20.03
2022-09-06T00:12:34.600Z,20.13
2022-09-06T00:16:40.823Z,19.87
2022-09-06T00:20:48.639Z,19.83
2022-09-06T00:24:53.399Z,19.57
2022-09-06T00:29:29.256Z,19.60
2022-09-06T00:33:32.556Z,19.78
2022-09-06T00:37:35.849Z,19.71
2022-09-06T00:41:41.283Z,19.67
2022-09-06T00:45:46.210Z,19.59
2022-09-06T00:50:00.178Z,19.56
2022-09-06T00:54:05.430Z,19.50
2022-09-06T00:58:08.851Z,19.09
2022-09-06T01:02:14.378Z,18.62
2022-09-06T01:06:26.528Z,18.44
2022-09-06T01:10:59.174Z,18.25
2022-09-06T01:15:11.237Z,18.13
2022-09-06T01:19:40.675Z,18.09
2022-09-06T01:24:05.494Z,18.06
2022-09-06T01:28:26.889Z,18.04
2022-09-06T01:32:36.498Z,18.12
2022-09-06T01:37:06.246Z,18.07
2022-09-06T01:41:09.172Z,18.02
2022-09-06T01:45:17.008Z,17.97
2022-09-06T01:49:30.281Z,18.00
2022-09-06T01:53:54.793Z,18.20
2022-09-06T01:58:15.445Z,18.28
2022-09-06T02:02:26.739Z,18.26
2022-09-06T02:06:36.145Z,18.01
2022-09-06T02:10:46.236Z,17.96
2022-09-06T02:14:53.216Z,17.85
2022-09-06T02:19:08.352Z,17.81
2022-09-06T02:23:13.595Z,17.85
2022-09-06T02:27:16.678Z,17.80
2022-09-06T02:31:24.806Z,17.78
2022-09-06T02:35:30.259Z,17.86
2022-09-06T02:39:33.370Z,17.83
2022-09-06T02:43:37.291Z,17.86
2022-09-06T02:47:45.249Z,17.83
2022-09-06T02:51:49.941Z,17.90
2022-09-06T02:55:53.521Z,17.82
2022-09-06T02:59:56.681Z,17.87
2022-09-06T03:04:00.037Z,17.82
2022-09-06T03:08:04.845Z,17.89
2022-09-06T03:12:08.284Z,17.88
2022-09-06T03:16:11.520Z,17.88
2022-09-06T03:20:15.388Z,17.88
2022-09-06T03:24:22.450Z,17.87
2022-09-06T03:28:26.403Z,17.95
2022-09-06T03:32:38.637Z,17.87
2022-09-06T03:36:41.899Z,17.79
2022-09-06T03:40:47.900Z,17.60
2022-09-06T03:44:51.498Z,17.61
2022-09-06T03:48:54.856Z,17.64
2022-09-06T03:52:58.189Z,17.56
2022-09-06T03:57:03.062Z,17.46
2022-09-06T04:01:08.741Z,17.42
2022-09-06T04:05:13.441Z,17.38
2022-09-06T04:09:16.547Z,17.25
2022-09-06T04:13:21.339Z,17.21
2022-09-06T04:17:27.317Z,17.24
2022-09-06T04:21:30.490Z,17.19
2022-09-06T04:25:33.718Z,17.19
2022-09-06T04:29:38.198Z,17.07
2022-09-06T04:33:41.526Z,17.05
2022-09-06T04:37:44.840Z,16.98
2022-09-06T04:41:48.921Z,16.93
2022-09-06T04:45:53.587Z,16.81
2022-09-06T04:49:56.893Z,16.74
2022-09-06T04:54:03.478Z,16.67
2022-09-06T04:58:07.147Z,16.64
2022-09-06T05:02:11.758Z,16.59
2022-09-06T05:06:22.113Z,16.52
2022-09-06T05:10:26.269Z,16.45
2022-09-06T05:14:56.474Z,16.43
2022-09-06T05:19:01.604Z,16.43
2022-09-06T05:23:11.653Z,16.50
2022-09-06T05:27:15.767Z,16.66
2022-09-06T05:31:28.118Z,16.67
2022-09-06T05:35:32.790Z,16.70
2022-09-06T05:43:55.328Z,16.75
2022-09-06T05:47:58.683Z,16.85
2022-09-06T05:52:03.835Z,16.98
2022-09-06T05:56:08.400Z,17.10
2022-09-06T06:00:17.296Z,17.32
2022-09-06T06:04:21.770Z,17.47
2022-09-06T06:08:26.572Z,17.63
2022-09-06T06:12:30.186Z,17.80
2022-09-06T06:16:44.109Z,17.98
2022-09-06T06:21:09.287Z,18.17
2022-09-06T06:25:26.463Z,18.39
2022-09-06T06:29:29.987Z,18.63
2022-09-06T06:33:33.647Z,18.84
2022-09-06T06:37:37.424Z,18.98
2022-09-06T06:41:45.640Z,19.19
2022-09-06T06:46:10.545Z,19.47
2022-09-06T06:50:16.474Z,19.80
2022-09-06T06:54:31.524Z,20.07
2022-09-06T06:58:42.032Z,20.25
2022-09-06T07:02:45.665Z,20.44
2022-09-06T07:11:21.704Z,20.62
2022-09-06T07:15:32.373Z,20.72
2022-09-06T07:24:06.796Z,21.20
2022-09-06T07:28:13.993Z,21.15
2022-09-06T07:32:18.683Z,21.45
2022-09-06T07:36:44.746Z,21.67
2022-09-06T07:40:54.379Z,21.93
2022-09-06T07:45:00.905Z,22.33
2022-09-06T07:49:07.454Z,23.10
2022-09-06T07:53:15.465Z,23.73
2022-09-06T07:57:23.395Z,24.49
2022-09-06T08:01:30.358Z,25.21
2022-09-06T08:09:58.528Z,25.37
2022-09-06T08:14:03.673Z,25.27
2022-09-06T08:18:07.319Z,25.58
2022-09-06T08:22:12.058Z,25.23
2022-09-06T08:26:15.362Z,26.24
2022-09-06T08:30:18.907Z,26.35
2022-09-06T08:34:22.483Z,26.94
2022-09-06T08:38:27.549Z,26.89
2022-09-06T08:42:32.110Z,27.34
2022-09-06T08:46:43.577Z,27.62
2022-09-06T08:51:05.059Z,26.99
2022-09-06T08:55:43.346Z,27.12
2022-09-06T08:59:46.752Z,28.57
2022-09-06T09:03:58.466Z,28.27
2022-09-06T09:08:07.357Z,28.40
2022-09-06T09:12:17.214Z,29.39
2022-09-06T09:16:20.891Z,30.12
2022-09-06T09:20:24.198Z,29.25
2022-09-06T09:24:27.231Z,30.20
2022-09-06T09:28:32.045Z,30.07
2022-09-06T09:32:37.256Z,29.52
2022-09-06T09:36:41.046Z,29.98
2022-09-06T09:40:52.335Z,30.58
2022-09-06T09:44:57.757Z,31.24
2022-09-06T09:49:05.292Z,29.56
2022-09-06T09:53:10.562Z,30.04
2022-09-06T09:57:20.099Z,29.59
2022-09-06T10:01:28.571Z,30.48
2022-09-06T10:05:31.966Z,31.36
2022-09-06T10:09:38.919Z,32.72
2022-09-06T10:13:43.396Z,30.75
2022-09-06T10:17:52.381Z,31.59
2022-09-06T10:22:01.427Z,29.89
2022-09-06T10:26:09.698Z,29.27
2022-09-06T10:30:14.683Z,31.30
2022-09-06T10:34:46.763Z,31.96
2022-09-06T10:39:00.391Z,32.76
2022-09-06T10:43:10.018Z,32.06
2022-09-06T10:47:15.702Z,31.75
2022-09-06T10:51:34.036Z,32.72
2022-09-06T10:55:41.165Z,33.25
2022-09-06T10:59:52.031Z,34.88
2022-09-06T11:04:02.277Z,33.48
2022-09-06T11:12:46.420Z,31.53
2022-09-06T11:16:53.860Z,31.55
2022-09-06T11:21:18.871Z,31.57
2022-09-06T11:25:57.830Z,32.69
2022-09-06T11:30:04.334Z,33.51
2022-09-06T11:34:11.456Z,32.30
2022-09-06T11:38:26.136Z,31.12
2022-09-06T11:43:11.701Z,32.91
2022-09-06T11:47:37.110Z,33.15
2022-09-06T11:51:43.575Z,31.85
2022-09-06T11:55:48.908Z,33.06
2022-09-06T12:00:03.932Z,33.03
2022-09-06T12:04:11.340Z,33.22
2022-09-06T12:08:33.300Z,32.38
2022-09-06T12:12:41.183Z,31.68
2022-09-06T12:17:22.386Z,32.58
2022-09-06T12:21:47.648Z,32.64
2022-09-06T12:25:57.324Z,33.32
2022-09-06T12:30:04.738Z,33.62
2022-09-06T12:34:15.746Z,33.14
2022-09-06T12:38:25.978Z,32.63
2022-09-06T12:42:30.651Z,33.72
2022-09-06T12:46:35.071Z,32.28
2022-09-06T12:50:40.652Z,33.73
2022-09-06T12:54:47.648Z,32.65
2022-09-06T12:58:51.494Z,32.96
2022-09-06T13:03:01.606Z,32.58
2022-09-06T13:07:07.966Z,34.08
2022-09-06T13:11:14.657Z,32.00
2022-09-06T13:15:21.170Z,32.23
2022-09-06T13:19:33.626Z,33.60
2022-09-06T13:23:48.995Z,33.91
2022-09-06T13:27:58.338Z,34.17
2022-09-06T13:32:05.810Z,35.07
2022-09-06T13:36:21.315Z,33.82
2022-09-06T13:41:09.281Z,34.31
2022-09-06T13:45:26.489Z,34.55
2022-09-06T13:49:35.676Z,34.14
2022-09-06T13:53:39.587Z,35.63
2022-09-06T13:57:44.495Z,33.69
2022-09-06T14:01:51.754Z,34.61
2022-09-06T14:06:00.516Z,35.52
2022-09-06T14:10:04.122Z,33.22
2022-09-06T14:14:09.965Z,33.49
2022-09-06T14:18:19.816Z,34.53
2022-09-06T14:22:23.361Z,32.34
2022-09-06T14:26:26.525Z,32.49
2022-09-06T14:30:39.695Z,33.34
2022-09-06T14:34:43.775Z,34.17
2022-09-06T14:38:47.510Z,34.56
2022-09-06T14:42:50.844Z,33.92
2022-09-06T14:46:55.353Z,33.03
2022-09-06T14:50:58.921Z,33.85
2022-09-06T14:55:02.522Z,34.19
2022-09-06T14:59:05.857Z,31.99
2022-09-06T15:03:16.558Z,32.41
2022-09-06T15:07:20.906Z,33.72
2022-09-06T15:11:34.633Z,34.31
2022-09-06T15:15:38.250Z,33.86
2022-09-06T15:19:45.888Z,34.22
2022-09-06T15:23:49.199Z,32.97
2022-09-06T15:27:52.737Z,32.75
2022-09-06T15:31:57.267Z,33.35
2022-09-06T15:36:06.217Z,33.96
2022-09-06T15:40:10.511Z,35.38
2022-09-06T15:44:21.324Z,34.12
2022-09-06T15:48:28.657Z,34.47
2022-09-06T15:52:37.038Z,33.69
2022-09-06T15:56:51.655Z,34.00
2022-09-06T16:01:08.896Z,33.39
2022-09-06T16:05:12.194Z,33.71
2022-09-06T16:09:18.739Z,33.56
2022-09-06T16:13:22.842Z,34.46
2022-09-06T16:17:35.786Z,34.11
2022-09-06T16:21:44.088Z,33.49
2022-09-06T16:25:53.967Z,33.27
2022-09-06T16:30:02.787Z,32.77
2022-09-06T16:34:10.170Z,33.26
2022-09-06T16:38:20.178Z,32.35
2022-09-06T16:42:26.249Z,32.22
2022-09-06T16:46:31.060Z,33.19
2022-09-06T16:50:42.906Z,32.76
2022-09-06T16:54:47.090Z,32.78
2022-09-06T16:58:53.979Z,34.03
2022-09-06T17:02:58.812Z,32.23
2022-09-06T17:07:04.987Z,32.10
2022-09-06T17:11:10.640Z,32.14
2022-09-06T17:15:15.270Z,31.67
2022-09-06T17:19:18.883Z,30.36
2022-09-06T17:23:24.427Z,29.31
2022-09-06T17:27:27.713Z,29.56
2022-09-06T17:31:39.539Z,29.11
2022-09-06T17:35:43.285Z,29.08
2022-09-06T17:39:49.939Z,28.60
2022-09-06T17:43:54.140Z,28.33
2022-09-06T17:47:58.831Z,27.80
2022-09-06T17:52:09.056Z,27.67
2022-09-06T17:56:18.241Z,27.43
2022-09-06T18:00:29.611Z,27.34
2022-09-06T18:04:35.027Z,27.05
2022-09-06T18:08:47.807Z,26.78
2022-09-06T18:12:52.587Z,26.58
2022-09-06T18:17:10.330Z,26.37
2022-09-06T18:26:19.702Z,26.04
2022-09-06T18:30:29.864Z,25.70
2022-09-06T18:34:33.780Z,25.62
2022-09-06T18:38:54.779Z,25.71
2022-09-06T18:42:59.456Z,25.56
2022-09-06T18:47:05.923Z,25.32
2022-09-06T18:51:18.116Z,25.26
2022-09-06T18:55:23.506Z,24.98
2022-09-06T18:59:32.458Z,24.86
2022-09-06T19:03:36.935Z,24.91
2022-09-06T19:07:40.885Z,25.16
2022-09-06T19:11:49.495Z,25.07
2022-09-06T19:15:54.310Z,24.75
2022-09-06T19:19:58.263Z,24.70
2022-09-06T19:24:04.913Z,24.54
2022-09-06T19:28:09.902Z,24.26
2022-09-06T19:32:13.632Z,24.02
2022-09-06T19:36:19.208Z,23.93
2022-09-06T19:40:25.570Z,23.98
2022-09-06T19:44:31.011Z,23.88
2022-09-06T19:48:36.711Z,23.40
2022-09-06T19:52:40.747Z,23.43
2022-09-06T19:56:45.068Z,23.20
2022-09-06T20:00:54.820Z,23.04
2022-09-06T20:05:04.754Z,23.07
2022-09-06T20:09:10.609Z,23.05
2022-09-06T20:13:14.328Z,22.81
2022-09-06T20:17:33.365Z,22.87
2022-09-06T20:21:44.556Z,23.08
2022-09-06T20:26:01.534Z,23.63
2022-09-06T20:30:08.136Z,23.60
2022-09-06T20:34:16.285Z,23.57
2022-09-06T20:38:23.099Z,23.69
2022-09-06T20:42:28.568Z,23.62
2022-09-06T20:46:34.176Z,23.55
2022-09-06T20:50:42.273Z,23.47
2022-09-06T20:54:52.111Z,23.41
2022-09-06T20:59:04.046Z,23.14
2022-09-06T21:03:18.665Z,23.12
2022-09-06T21:07:25.642Z,23.46
2022-09-06T21:11:31.047Z,23.65
2022-09-06T21:15:43.263Z,23.94
2022-09-06T21:19:49.321Z,24.11
2022-09-06T21:23:59.061Z,24.35
2022-09-06T21:28:19.412Z,24.30
2022-09-06T21:32:27.189Z,24.24
2022-09-06T21:36:36.042Z,24.19
2022-09-06T21:40:44.449Z,24.11
2022-09-06T21:44:49.386Z,24.06
2022-09-06T21:48:55.095Z,23.97
2022-09-06T21:53:01.970Z,23.89
2022-09-06T21:57:10.235Z,23.79
2022-09-06T22:01:19.676Z,23.76
2022-09-06T22:05:29.633Z,23.69
2022-09-06T22:09:33.369Z,23.65
2022-09-06T22:13:38.656Z,23.55
2022-09-06T22:17:51.060Z,23.51
2022-09-06T22:22:07.080Z,23.40
2022-09-06T22:26:16.842Z,23.38
2022-09-06T22:30:25.985Z,23.34
2022-09-06T22:34:34.555Z,23.24
2022-09-06T22:38:41.445Z,23.16
2022-09-06T22:42:51.128Z,22.69
2022-09-06T22:47:03.291Z,21.99
2022-09-06T22:51:18.465Z,21.53
2022-09-06T22:55:43.496Z,19.65
2022-09-06T22:59:46.766Z,18.06
2022-09-06T23:03:51.225Z,17.62
2022-09-06T23:07:57.966Z,17.39
2022-09-06T23:12:08.027Z,17.37
2022-09-06T23:16:23.610Z,17.54
2022-09-06T23:20:39.349Z,17.67
2022-09-06T23:24:45.788Z,17.69
2022-09-06T23:28:59.982Z,17.68
2022-09-06T23:33:12.837Z,17.68
2022-09-06T23:37:32.690Z,17.62
2022-09-06T23:41:36.795Z,17.61
2022-09-06T23:55:24.016Z,17.48
